sensor_id;sensor_type;location;lat;lon;timestamp;P1;durP1;ratioP1;P2;durP2;ratioP2
55776;SDS011;54079;44.540;18.784;2022-10-15T00:00:07;5.13;;;4.15;;
55776;SDS011;54079;44.540;18.784;2022-10-15T00:02:33;7.55;;;3.63;;
55776;SDS011;54079;44.540;18.784;2022-10-15T00:04:59;6.72;;;4.38;;
55776;SDS011;54079;44.540;18.784;2022-10-15T00:07:27;4.57;;;4.10;;
55776;SDS011;54079;44.540;18.784;2022-10-15T00:09:53;5.05;;;4.18;;
55776;SDS011;54079;44.540;18.784;2022-10-15T00:12:19;8.13;;;4.28;;
55776;SDS011;54079;44.540;18.784;2022-10-15T00:14:45;6.13;;;4.13;;
55776;SDS011;54079;44.540;18.784;2022-10-15T00:17:11;5.30;;;3.70;;
55776;SDS011;54079;44.540;18.784;2022-10-15T00:19:37;6.93;;;4.22;;
55776;SDS011;54079;44.540;18.784;2022-10-15T00:22:03;7.57;;;3.67;;
55776;SDS011;54079;44.540;18.784;2022-10-15T00:24:29;4.63;;;3.72;;
55776;SDS011;54079;44.540;18.784;2022-10-15T00:26:55;4.30;;;3.78;;
55776;SDS011;54079;44.540;18.784;2022-10-15T00:29:21;6.00;;;4.18;;
55776;SDS011;54079;44.540;18.784;2022-10-15T00:31:47;4.43;;;3.75;;
55776;SDS011;54079;44.540;18.784;2022-10-15T00:34:13;6.80;;;3.95;;
55776;SDS011;54079;44.540;18.784;2022-10-15T00:36:38;5.97;;;3.50;;
55776;SDS011;54079;44.540;18.784;2022-10-15T00:39:05;4.97;;;4.03;;
55776;SDS011;54079;44.540;18.784;2022-10-15T00:41:49;7.38;;;3.78;;
55776;SDS011;54079;44.540;18.784;2022-10-15T00:46:51;6.32;;;3.90;;
55776;SDS011;54079;44.540;18.784;2022-10-15T00:52:45;4.60;;;3.25;;
55776;SDS011;54079;44.540;18.784;2022-10-15T00:55:18;3.97;;;3.42;;
55776;SDS011;54079;44.540;18.784;2022-10-15T00:57:52;5.32;;;3.38;;
55776;SDS011;54079;44.540;18.784;2022-10-15T01:00:19;5.03;;;3.75;;
55776;SDS011;54079;44.540;18.784;2022-10-15T01:02:45;6.35;;;3.03;;
55776;SDS011;54079;44.540;18.784;2022-10-15T01:05:12;5.40;;;3.85;;
55776;SDS011;54079;44.540;18.784;2022-10-15T01:07:40;4.65;;;4.00;;
55776;SDS011;54079;44.540;18.784;2022-10-15T01:10:06;5.07;;;3.60;;
55776;SDS011;54079;44.540;18.784;2022-10-15T01:17:48;5.75;;;4.15;;
55776;SDS011;54079;44.540;18.784;2022-10-15T01:20:39;5.60;;;4.00;;
55776;SDS011;54079;44.540;18.784;2022-10-15T01:36:54;7.43;;;3.35;;
55776;SDS011;54079;44.540;18.784;2022-10-15T01:39:43;6.35;;;4.10;;
55776;SDS011;54079;44.540;18.784;2022-10-15T01:42:32;4.22;;;3.80;;
55776;SDS011;54079;44.540;18.784;2022-10-15T01:45:08;4.60;;;3.45;;
55776;SDS011;54079;44.540;18.784;2022-10-15T01:47:43;4.45;;;3.53;;
55776;SDS011;54079;44.540;18.784;2022-10-15T01:50:22;5.68;;;3.90;;
55776;SDS011;54079;44.540;18.784;2022-10-15T01:52:51;9.95;;;4.05;;
55776;SDS011;54079;44.540;18.784;2022-10-15T01:55:20;5.10;;;3.47;;
55776;SDS011;54079;44.540;18.784;2022-10-15T01:57:48;4.57;;;3.65;;
55776;SDS011;54079;44.540;18.784;2022-10-15T02:00:15;6.20;;;3.78;;
55776;SDS011;54079;44.540;18.784;2022-10-15T02:02:41;5.57;;;3.80;;
55776;SDS011;54079;44.540;18.784;2022-10-15T02:05:09;6.18;;;3.78;;
55776;SDS011;54079;44.540;18.784;2022-10-15T02:07:42;5.57;;;3.63;;
55776;SDS011;54079;44.540;18.784;2022-10-15T02:10:22;4.53;;;3.70;;
55776;SDS011;54079;44.540;18.784;2022-10-15T02:13:23;5.35;;;3.50;;
55776;SDS011;54079;44.540;18.784;2022-10-15T02:16:00;7.28;;;3.67;;
55776;SDS011;54079;44.540;18.784;2022-10-15T02:21:17;4.55;;;3.35;;
55776;SDS011;54079;44.540;18.784;2022-10-15T02:26:27;4.57;;;3.63;;
55776;SDS011;54079;44.540;18.784;2022-10-15T02:28:55;7.85;;;4.20;;
55776;SDS011;54079;44.540;18.784;2022-10-15T02:31:23;4.18;;;3.35;;
55776;SDS011;54079;44.540;18.784;2022-10-15T02:33:52;5.15;;;3.22;;
55776;SDS011;54079;44.540;18.784;2022-10-15T02:36:22;3.67;;;2.97;;
55776;SDS011;54079;44.540;18.784;2022-10-15T02:38:48;5.07;;;3.47;;
55776;SDS011;54079;44.540;18.784;2022-10-15T02:41:16;5.13;;;4.35;;
55776;SDS011;54079;44.540;18.784;2022-10-15T02:43:42;3.95;;;3.20;;
55776;SDS011;54079;44.540;18.784;2022-10-15T02:46:10;3.80;;;2.70;;
55776;SDS011;54079;44.540;18.784;2022-10-15T02:48:37;6.55;;;4.03;;
55776;SDS011;54079;44.540;18.784;2022-10-15T02:51:03;8.40;;;4.63;;
55776;SDS011;54079;44.540;18.784;2022-10-15T02:53:29;4.97;;;3.35;;
55776;SDS011;54079;44.540;18.784;2022-10-15T02:55:55;4.18;;;3.50;;
55776;SDS011;54079;44.540;18.784;2022-10-15T02:58:21;5.88;;;4.20;;
55776;SDS011;54079;44.540;18.784;2022-10-15T03:00:47;5.28;;;4.03;;
55776;SDS011;54079;44.540;18.784;2022-10-15T03:03:13;5.53;;;3.45;;
55776;SDS011;54079;44.540;18.784;2022-10-15T03:05:39;5.15;;;3.90;;
55776;SDS011;54079;44.540;18.784;2022-10-15T03:08:06;6.05;;;3.67;;
55776;SDS011;54079;44.540;18.784;2022-10-15T03:10:32;3.60;;;3.20;;
55776;SDS011;54079;44.540;18.784;2022-10-15T03:13:04;4.20;;;3.65;;
55776;SDS011;54079;44.540;18.784;2022-10-15T03:15:31;5.00;;;3.38;;
55776;SDS011;54079;44.540;18.784;2022-10-15T03:17:57;5.95;;;3.75;;
55776;SDS011;54079;44.540;18.784;2022-10-15T03:20:23;4.68;;;3.33;;
55776;SDS011;54079;44.540;18.784;2022-10-15T03:22:49;5.90;;;3.45;;
55776;SDS011;54079;44.540;18.784;2022-10-15T03:25:15;5.15;;;4.00;;
55776;SDS011;54079;44.540;18.784;2022-10-15T03:27:41;6.32;;;4.40;;
55776;SDS011;54079;44.540;18.784;2022-10-15T03:30:07;6.65;;;3.90;;
55776;SDS011;54079;44.540;18.784;2022-10-15T03:32:33;6.85;;;4.25;;
55776;SDS011;54079;44.540;18.784;2022-10-15T03:34:59;5.22;;;4.10;;
55776;SDS011;54079;44.540;18.784;2022-10-15T03:37:25;3.70;;;3.08;;
55776;SDS011;54079;44.540;18.784;2022-10-15T03:39:51;5.85;;;4.50;;
55776;SDS011;54079;44.540;18.784;2022-10-15T03:42:17;4.43;;;3.80;;
55776;SDS011;54079;44.540;18.784;2022-10-15T03:44:43;4.72;;;3.72;;
55776;SDS011;54079;44.540;18.784;2022-10-15T03:47:09;5.03;;;3.30;;
55776;SDS011;54079;44.540;18.784;2022-10-15T03:49:35;6.10;;;3.97;;
55776;SDS011;54079;44.540;18.784;2022-10-15T03:52:01;5.55;;;4.90;;
55776;SDS011;54079;44.540;18.784;2022-10-15T03:54:27;6.15;;;3.80;;
55776;SDS011;54079;44.540;18.784;2022-10-15T03:56:52;5.95;;;4.07;;
55776;SDS011;54079;44.540;18.784;2022-10-15T03:59:18;6.07;;;4.80;;
55776;SDS011;54079;44.540;18.784;2022-10-15T04:01:46;6.93;;;5.15;;
55776;SDS011;54079;44.540;18.784;2022-10-15T04:04:12;8.20;;;4.60;;
55776;SDS011;54079;44.540;18.784;2022-10-15T04:06:38;8.70;;;5.28;;
55776;SDS011;54079;44.540;18.784;2022-10-15T04:09:04;4.20;;;3.78;;
55776;SDS011;54079;44.540;18.784;2022-10-15T04:11:30;5.90;;;4.45;;
55776;SDS011;54079;44.540;18.784;2022-10-15T04:13:56;6.75;;;5.03;;
55776;SDS011;54079;44.540;18.784;2022-10-15T04:16:22;6.75;;;4.85;;
55776;SDS011;54079;44.540;18.784;2022-10-15T04:18:51;5.72;;;4.53;;
55776;SDS011;54079;44.540;18.784;2022-10-15T04:21:16;5.55;;;4.57;;
55776;SDS011;54079;44.540;18.784;2022-10-15T04:23:42;7.53;;;5.00;;
55776;SDS011;54079;44.540;18.784;2022-10-15T04:26:09;7.18;;;5.25;;
55776;SDS011;54079;44.540;18.784;2022-10-15T04:28:35;8.05;;;5.53;;
55776;SDS011;54079;44.540;18.784;2022-10-15T04:31:01;5.30;;;3.70;;
55776;SDS011;54079;44.540;18.784;2022-10-15T04:33:27;6.93;;;5.45;;
55776;SDS011;54079;44.540;18.784;2022-10-15T04:36:07;7.75;;;5.18;;
55776;SDS011;54079;44.540;18.784;2022-10-15T04:38:36;7.05;;;4.97;;
55776;SDS011;54079;44.540;18.784;2022-10-15T04:41:04;7.22;;;5.20;;
55776;SDS011;54079;44.540;18.784;2022-10-15T04:43:35;7.95;;;5.25;;
55776;SDS011;54079;44.540;18.784;2022-10-15T04:46:02;8.02;;;4.90;;
55776;SDS011;54079;44.540;18.784;2022-10-15T04:48:30;5.97;;;4.97;;
55776;SDS011;54079;44.540;18.784;2022-10-15T04:53:36;8.10;;;5.15;;
55776;SDS011;54079;44.540;18.784;2022-10-15T04:56:03;7.20;;;5.35;;
55776;SDS011;54079;44.540;18.784;2022-10-15T04:58:32;8.45;;;5.55;;
55776;SDS011;54079;44.540;18.784;2022-10-15T05:01:00;7.30;;;5.72;;
55776;SDS011;54079;44.540;18.784;2022-10-15T05:03:27;8.32;;;6.10;;
55776;SDS011;54079;44.540;18.784;2022-10-15T05:05:58;7.63;;;4.82;;
55776;SDS011;54079;44.540;18.784;2022-10-15T05:08:25;8.27;;;5.93;;
55776;SDS011;54079;44.540;18.784;2022-10-15T05:10:52;8.27;;;5.60;;
55776;SDS011;54079;44.540;18.784;2022-10-15T05:13:17;8.98;;;5.28;;
55776;SDS011;54079;44.540;18.784;2022-10-15T05:15:43;12.60;;;5.93;;
55776;SDS011;54079;44.540;18.784;2022-10-15T05:18:09;7.50;;;5.65;;
55776;SDS011;54079;44.540;18.784;2022-10-15T05:20:36;6.68;;;5.18;;
55776;SDS011;54079;44.540;18.784;2022-10-15T05:23:02;12.45;;;6.13;;
55776;SDS011;54079;44.540;18.784;2022-10-15T05:25:30;9.73;;;6.97;;
55776;SDS011;54079;44.540;18.784;2022-10-15T05:27:56;10.25;;;6.97;;
55776;SDS011;54079;44.540;18.784;2022-10-15T05:30:22;10.95;;;6.63;;
55776;SDS011;54079;44.540;18.784;2022-10-15T05:32:50;7.40;;;6.20;;
55776;SDS011;54079;44.540;18.784;2022-10-15T05:35:18;9.93;;;7.35;;
55776;SDS011;54079;44.540;18.784;2022-10-15T05:37:44;11.10;;;7.60;;
55776;SDS011;54079;44.540;18.784;2022-10-15T05:40:11;6.93;;;5.53;;
55776;SDS011;54079;44.540;18.784;2022-10-15T05:42:37;6.95;;;5.72;;
55776;SDS011;54079;44.540;18.784;2022-10-15T05:45:03;8.40;;;5.13;;
55776;SDS011;54079;44.540;18.784;2022-10-15T05:47:29;6.72;;;4.93;;
55776;SDS011;54079;44.540;18.784;2022-10-15T05:49:55;10.10;;;5.85;;
55776;SDS011;54079;44.540;18.784;2022-10-15T05:52:21;9.48;;;6.63;;
55776;SDS011;54079;44.540;18.784;2022-10-15T05:54:48;8.38;;;5.95;;
55776;SDS011;54079;44.540;18.784;2022-10-15T05:57:14;7.25;;;5.10;;
55776;SDS011;54079;44.540;18.784;2022-10-15T05:59:40;9.45;;;6.25;;
55776;SDS011;54079;44.540;18.784;2022-10-15T06:02:07;10.35;;;5.72;;
55776;SDS011;54079;44.540;18.784;2022-10-15T06:04:34;7.65;;;5.35;;
55776;SDS011;54079;44.540;18.784;2022-10-15T06:07:00;9.20;;;6.13;;
55776;SDS011;54079;44.540;18.784;2022-10-15T06:09:27;8.25;;;5.90;;
55776;SDS011;54079;44.540;18.784;2022-10-15T06:11:54;7.55;;;6.15;;
55776;SDS011;54079;44.540;18.784;2022-10-15T06:14:20;8.23;;;6.18;;
55776;SDS011;54079;44.540;18.784;2022-10-15T06:16:46;10.32;;;7.60;;
55776;SDS011;54079;44.540;18.784;2022-10-15T06:19:14;9.93;;;6.38;;
55776;SDS011;54079;44.540;18.784;2022-10-15T06:21:41;12.10;;;7.40;;
55776;SDS011;54079;44.540;18.784;2022-10-15T06:24:08;6.82;;;6.05;;
55776;SDS011;54079;44.540;18.784;2022-10-15T06:26:36;8.73;;;6.35;;
55776;SDS011;54079;44.540;18.784;2022-10-15T06:29:02;10.20;;;6.65;;
55776;SDS011;54079;44.540;18.784;2022-10-15T06:31:28;8.10;;;6.05;;
55776;SDS011;54079;44.540;18.784;2022-10-15T06:33:55;16.45;;;7.03;;
55776;SDS011;54079;44.540;18.784;2022-10-15T06:36:20;9.02;;;6.20;;
55776;SDS011;54079;44.540;18.784;2022-10-15T06:38:48;8.57;;;5.65;;
55776;SDS011;54079;44.540;18.784;2022-10-15T06:41:14;8.85;;;6.57;;
55776;SDS011;54079;44.540;18.784;2022-10-15T06:43:41;8.75;;;5.97;;
55776;SDS011;54079;44.540;18.784;2022-10-15T06:46:07;13.98;;;5.88;;
55776;SDS011;54079;44.540;18.784;2022-10-15T06:48:33;7.35;;;5.85;;
55776;SDS011;54079;44.540;18.784;2022-10-15T06:50:59;7.03;;;6.32;;
55776;SDS011;54079;44.540;18.784;2022-10-15T06:53:26;8.65;;;5.50;;
55776;SDS011;54079;44.540;18.784;2022-10-15T06:56:00;5.85;;;5.35;;
55776;SDS011;54079;44.540;18.784;2022-10-15T06:58:27;6.45;;;5.43;;
55776;SDS011;54079;44.540;18.784;2022-10-15T07:00:58;6.35;;;5.20;;
55776;SDS011;54079;44.540;18.784;2022-10-15T07:03:25;6.70;;;4.72;;
55776;SDS011;54079;44.540;18.784;2022-10-15T07:05:51;7.97;;;5.13;;
55776;SDS011;54079;44.540;18.784;2022-10-15T07:08:17;5.75;;;4.45;;
55776;SDS011;54079;44.540;18.784;2022-10-15T07:10:43;7.30;;;4.90;;
55776;SDS011;54079;44.540;18.784;2022-10-15T07:13:09;5.93;;;5.32;;
55776;SDS011;54079;44.540;18.784;2022-10-15T07:15:35;7.35;;;5.28;;
55776;SDS011;54079;44.540;18.784;2022-10-15T07:18:01;5.25;;;4.75;;
55776;SDS011;54079;44.540;18.784;2022-10-15T07:20:28;4.63;;;4.22;;
55776;SDS011;54079;44.540;18.784;2022-10-15T07:22:59;6.70;;;5.47;;
55776;SDS011;54079;44.540;18.784;2022-10-15T07:25:26;6.18;;;5.15;;
55776;SDS011;54079;44.540;18.784;2022-10-15T07:27:52;5.75;;;5.25;;
55776;SDS011;54079;44.540;18.784;2022-10-15T07:30:19;5.53;;;5.03;;
55776;SDS011;54079;44.540;18.784;2022-10-15T07:32:46;5.15;;;4.65;;
55776;SDS011;54079;44.540;18.784;2022-10-15T07:35:12;6.20;;;5.60;;
55776;SDS011;54079;44.540;18.784;2022-10-15T07:37:38;5.38;;;4.88;;
55776;SDS011;54079;44.540;18.784;2022-10-15T07:40:05;5.43;;;4.93;;
55776;SDS011;54079;44.540;18.784;2022-10-15T07:42:31;4.38;;;4.07;;
55776;SDS011;54079;44.540;18.784;2022-10-15T07:44:57;6.28;;;4.13;;
55776;SDS011;54079;44.540;18.784;2022-10-15T07:47:23;5.22;;;4.80;;
55776;SDS011;54079;44.540;18.784;2022-10-15T07:49:49;4.78;;;4.43;;
55776;SDS011;54079;44.540;18.784;2022-10-15T07:52:15;4.15;;;3.85;;
55776;SDS011;54079;44.540;18.784;2022-10-15T07:54:41;4.50;;;4.10;;
55776;SDS011;54079;44.540;18.784;2022-10-15T07:57:07;5.10;;;4.28;;
55776;SDS011;54079;44.540;18.784;2022-10-15T07:59:33;5.03;;;4.43;;
55776;SDS011;54079;44.540;18.784;2022-10-15T08:01:59;5.43;;;4.65;;
55776;SDS011;54079;44.540;18.784;2022-10-15T08:04:25;4.40;;;4.00;;
55776;SDS011;54079;44.540;18.784;2022-10-15T08:06:52;4.82;;;4.43;;
55776;SDS011;54079;44.540;18.784;2022-10-15T08:09:18;5.18;;;4.40;;
55776;SDS011;54079;44.540;18.784;2022-10-15T08:11:44;5.43;;;4.95;;
55776;SDS011;54079;44.540;18.784;2022-10-15T08:14:09;6.20;;;5.00;;
55776;SDS011;54079;44.540;18.784;2022-10-15T08:16:35;6.68;;;5.97;;
55776;SDS011;54079;44.540;18.784;2022-10-15T08:19:01;6.57;;;5.13;;
55776;SDS011;54079;44.540;18.784;2022-10-15T08:21:28;5.53;;;5.03;;
55776;SDS011;54079;44.540;18.784;2022-10-15T08:23:53;5.88;;;5.38;;
55776;SDS011;54079;44.540;18.784;2022-10-15T08:26:19;6.68;;;5.68;;
55776;SDS011;54079;44.540;18.784;2022-10-15T08:28:45;5.10;;;4.70;;
55776;SDS011;54079;44.540;18.784;2022-10-15T08:31:12;9.20;;;5.93;;
55776;SDS011;54079;44.540;18.784;2022-10-15T08:33:38;7.05;;;5.07;;
55776;SDS011;54079;44.540;18.784;2022-10-15T08:36:05;4.57;;;4.18;;
55776;SDS011;54079;44.540;18.784;2022-10-15T08:38:32;8.32;;;7.63;;
55776;SDS011;54079;44.540;18.784;2022-10-15T08:40:59;6.40;;;5.80;;
55776;SDS011;54079;44.540;18.784;2022-10-15T08:46:03;5.25;;;4.85;;
55776;SDS011;54079;44.540;18.784;2022-10-15T08:48:37;3.30;;;3.10;;
55776;SDS011;54079;44.540;18.784;2022-10-15T08:51:18;5.47;;;4.30;;
55776;SDS011;54079;44.540;18.784;2022-10-15T08:53:49;11.20;;;10.20;;
55776;SDS011;54079;44.540;18.784;2022-10-15T08:56:27;8.73;;;7.07;;
55776;SDS011;54079;44.540;18.784;2022-10-15T09:01:52;4.57;;;2.78;;
55776;SDS011;54079;44.540;18.784;2022-10-15T09:07:08;9.38;;;8.38;;
55776;SDS011;54079;44.540;18.784;2022-10-15T09:09:43;8.60;;;7.80;;
55776;SDS011;54079;44.540;18.784;2022-10-15T09:15:17;16.20;;;14.57;;
55776;SDS011;54079;44.540;18.784;2022-10-15T09:17:45;10.75;;;9.73;;
55776;SDS011;54079;44.540;18.784;2022-10-15T09:20:20;8.43;;;7.63;;
55776;SDS011;54079;44.540;18.784;2022-10-15T09:22:54;13.82;;;12.48;;
55776;SDS011;54079;44.540;18.784;2022-10-15T09:25:22;10.27;;;8.35;;
55776;SDS011;54079;44.540;18.784;2022-10-15T09:27:49;12.15;;;8.82;;
55776;SDS011;54079;44.540;18.784;2022-10-15T09:30:32;4.38;;;3.97;;
55776;SDS011;54079;44.540;18.784;2022-10-15T09:33:26;7.35;;;5.10;;
55776;SDS011;54079;44.540;18.784;2022-10-15T09:36:00;13.95;;;11.63;;
55776;SDS011;54079;44.540;18.784;2022-10-15T09:44:13;9.98;;;8.65;;
55776;SDS011;54079;44.540;18.784;2022-10-15T09:46:45;8.15;;;7.38;;
55776;SDS011;54079;44.540;18.784;2022-10-15T09:49:17;7.13;;;6.07;;
55776;SDS011;54079;44.540;18.784;2022-10-15T09:57:24;2.55;;;2.35;;
55776;SDS011;54079;44.540;18.784;2022-10-15T09:59:52;3.67;;;2.97;;
55776;SDS011;54079;44.540;18.784;2022-10-15T10:02:20;2.65;;;2.38;;
55776;SDS011;54079;44.540;18.784;2022-10-15T10:04:48;3.05;;;2.38;;
55776;SDS011;54079;44.540;18.784;2022-10-15T10:07:27;3.67;;;3.20;;
55776;SDS011;54079;44.540;18.784;2022-10-15T10:09:55;8.38;;;7.03;;
55776;SDS011;54079;44.540;18.784;2022-10-15T10:12:25;6.90;;;6.20;;
55776;SDS011;54079;44.540;18.784;2022-10-15T10:14:54;5.78;;;5.15;;
55776;SDS011;54079;44.540;18.784;2022-10-15T10:17:22;4.90;;;3.08;;
55776;SDS011;54079;44.540;18.784;2022-10-15T10:20:03;4.57;;;3.78;;
55776;SDS011;54079;44.540;18.784;2022-10-15T10:22:57;3.83;;;3.42;;
55776;SDS011;54079;44.540;18.784;2022-10-15T10:27:53;4.05;;;3.65;;
55776;SDS011;54079;44.540;18.784;2022-10-15T10:30:20;3.63;;;3.03;;
55776;SDS011;54079;44.540;18.784;2022-10-15T10:32:47;3.22;;;2.53;;
55776;SDS011;54079;44.540;18.784;2022-10-15T10:37:45;3.75;;;3.00;;
55776;SDS011;54079;44.540;18.784;2022-10-15T10:40:20;5.25;;;4.75;;
55776;SDS011;54079;44.540;18.784;2022-10-15T10:43:08;7.30;;;5.72;;
55776;SDS011;54079;44.540;18.784;2022-10-15T10:45:58;5.85;;;5.00;;
55776;SDS011;54079;44.540;18.784;2022-10-15T10:48:39;5.60;;;4.97;;
55776;SDS011;54079;44.540;18.784;2022-10-15T10:51:14;3.50;;;3.10;;
55776;SDS011;54079;44.540;18.784;2022-10-15T10:53:52;3.05;;;2.53;;
55776;SDS011;54079;44.540;18.784;2022-10-15T10:56:23;3.28;;;2.97;;
55776;SDS011;54079;44.540;18.784;2022-10-15T10:59:21;4.65;;;3.70;;
55776;SDS011;54079;44.540;18.784;2022-10-15T11:02:10;2.63;;;1.40;;
55776;SDS011;54079;44.540;18.784;2022-10-15T11:04:37;2.15;;;1.95;;
55776;SDS011;54079;44.540;18.784;2022-10-15T11:10:10;4.70;;;2.55;;
55776;SDS011;54079;44.540;18.784;2022-10-15T11:13:11;2.88;;;1.90;;
55776;SDS011;54079;44.540;18.784;2022-10-15T11:16:00;3.78;;;3.22;;
55776;SDS011;54079;44.540;18.784;2022-10-15T11:24:20;3.42;;;2.70;;
55776;SDS011;54079;44.540;18.784;2022-10-15T11:29:54;3.47;;;2.03;;
55776;SDS011;54079;44.540;18.784;2022-10-15T11:32:24;6.97;;;4.03;;
55776;SDS011;54079;44.540;18.784;2022-10-15T11:46:12;7.80;;;4.20;;
55776;SDS011;54079;44.540;18.784;2022-10-15T11:48:58;2.97;;;2.53;;
55776;SDS011;54079;44.540;18.784;2022-10-15T11:57:39;3.40;;;3.10;;
55776;SDS011;54079;44.540;18.784;2022-10-15T12:00:21;3.95;;;3.50;;
55776;SDS011;54079;44.540;18.784;2022-10-15T12:02:57;3.78;;;3.35;;
55776;SDS011;54079;44.540;18.784;2022-10-15T12:05:36;2.83;;;2.50;;
55776;SDS011;54079;44.540;18.784;2022-10-15T12:08:06;3.15;;;2.85;;
55776;SDS011;54079;44.540;18.784;2022-10-15T12:13:38;4.90;;;3.38;;
55776;SDS011;54079;44.540;18.784;2022-10-15T12:18:54;5.97;;;5.00;;
55776;SDS011;54079;44.540;18.784;2022-10-15T12:21:38;5.05;;;4.55;;
55776;SDS011;54079;44.540;18.784;2022-10-15T12:25:09;4.13;;;3.38;;
55776;SDS011;54079;44.540;18.784;2022-10-15T12:32:42;3.42;;;2.60;;
55776;SDS011;54079;44.540;18.784;2022-10-15T12:37:39;4.07;;;2.53;;
55776;SDS011;54079;44.540;18.784;2022-10-15T12:42:48;5.25;;;3.10;;
55776;SDS011;54079;44.540;18.784;2022-10-15T12:50:29;4.43;;;3.17;;
55776;SDS011;54079;44.540;18.784;2022-10-15T12:53:04;3.40;;;2.58;;
55776;SDS011;54079;44.540;18.784;2022-10-15T12:56:33;2.90;;;2.60;;
55776;SDS011;54079;44.540;18.784;2022-10-15T12:58:45;3.33;;;2.10;;
55776;SDS011;54079;44.540;18.784;2022-10-15T13:09:45;3.15;;;2.13;;
55776;SDS011;54079;44.540;18.784;2022-10-15T13:11:53;3.38;;;2.10;;
55776;SDS011;54079;44.540;18.784;2022-10-15T13:16:55;3.25;;;2.13;;
55776;SDS011;54079;44.540;18.784;2022-10-15T13:19:24;4.35;;;2.67;;
55776;SDS011;54079;44.540;18.784;2022-10-15T13:21:54;2.90;;;2.25;;
55776;SDS011;54079;44.540;18.784;2022-10-15T13:24:23;15.38;;;3.03;;
55776;SDS011;54079;44.540;18.784;2022-10-15T13:26:51;4.45;;;2.53;;
55776;SDS011;54079;44.540;18.784;2022-10-15T13:29:23;2.70;;;1.85;;
55776;SDS011;54079;44.540;18.784;2022-10-15T13:31:50;1.80;;;1.70;;
55776;SDS011;54079;44.540;18.784;2022-10-15T13:36:59;2.50;;;2.05;;
55776;SDS011;54079;44.540;18.784;2022-10-15T13:39:28;3.03;;;2.20;;
55776;SDS011;54079;44.540;18.784;2022-10-15T13:42:14;3.03;;;2.53;;
55776;SDS011;54079;44.540;18.784;2022-10-15T13:44:42;3.22;;;2.70;;
55776;SDS011;54079;44.540;18.784;2022-10-15T13:50:19;4.85;;;3.30;;
55776;SDS011;54079;44.540;18.784;2022-10-15T13:52:54;3.65;;;2.88;;
55776;SDS011;54079;44.540;18.784;2022-10-15T13:55:25;4.32;;;2.50;;
55776;SDS011;54079;44.540;18.784;2022-10-15T13:57:58;3.35;;;2.50;;
55776;SDS011;54079;44.540;18.784;2022-10-15T14:00:41;6.88;;;3.00;;
55776;SDS011;54079;44.540;18.784;2022-10-15T14:05:47;5.90;;;2.67;;
55776;SDS011;54079;44.540;18.784;2022-10-15T14:08:34;3.97;;;3.00;;
55776;SDS011;54079;44.540;18.784;2022-10-15T14:11:00;4.43;;;3.15;;
55776;SDS011;54079;44.540;18.784;2022-10-15T14:13:27;3.55;;;2.70;;
55776;SDS011;54079;44.540;18.784;2022-10-15T14:16:00;4.75;;;3.03;;
55776;SDS011;54079;44.540;18.784;2022-10-15T14:18:43;4.03;;;3.08;;
55776;SDS011;54079;44.540;18.784;2022-10-15T14:21:12;9.10;;;3.78;;
55776;SDS011;54079;44.540;18.784;2022-10-15T14:23:41;3.85;;;3.30;;
55776;SDS011;54079;44.540;18.784;2022-10-15T14:26:08;5.72;;;3.92;;
55776;SDS011;54079;44.540;18.784;2022-10-15T14:28:35;6.93;;;3.80;;
55776;SDS011;54079;44.540;18.784;2022-10-15T14:31:02;4.20;;;3.72;;
55776;SDS011;54079;44.540;18.784;2022-10-15T14:36:06;4.78;;;3.60;;
55776;SDS011;54079;44.540;18.784;2022-10-15T14:38:38;4.47;;;3.42;;
55776;SDS011;54079;44.540;18.784;2022-10-15T14:41:17;3.47;;;3.17;;
55776;SDS011;54079;44.540;18.784;2022-10-15T14:46:38;4.35;;;3.90;;
55776;SDS011;54079;44.540;18.784;2022-10-15T14:49:38;5.90;;;3.70;;
55776;SDS011;54079;44.540;18.784;2022-10-15T14:52:05;4.43;;;4.03;;
55776;SDS011;54079;44.540;18.784;2022-10-15T14:54:37;5.50;;;3.60;;
55776;SDS011;54079;44.540;18.784;2022-10-15T14:57:39;6.30;;;3.47;;
55776;SDS011;54079;44.540;18.784;2022-10-15T15:00:04;5.38;;;4.13;;
55776;SDS011;54079;44.540;18.784;2022-10-15T15:02:38;3.80;;;3.30;;
55776;SDS011;54079;44.540;18.784;2022-10-15T15:07:36;3.45;;;3.15;;
55776;SDS011;54079;44.540;18.784;2022-10-15T15:10:03;4.10;;;3.20;;
55776;SDS011;54079;44.540;18.784;2022-10-15T15:12:31;4.32;;;3.92;;
55776;SDS011;54079;44.540;18.784;2022-10-15T15:14:57;4.53;;;4.07;;
55776;SDS011;54079;44.540;18.784;2022-10-15T15:17:24;3.75;;;3.00;;
55776;SDS011;54079;44.540;18.784;2022-10-15T15:19:52;4.80;;;3.60;;
55776;SDS011;54079;44.540;18.784;2022-10-15T15:22:29;3.63;;;3.20;;
55776;SDS011;54079;44.540;18.784;2022-10-15T15:24:57;5.05;;;3.55;;
55776;SDS011;54079;44.540;18.784;2022-10-15T15:27:26;5.07;;;3.20;;
55776;SDS011;54079;44.540;18.784;2022-10-15T15:29:53;3.78;;;3.15;;
55776;SDS011;54079;44.540;18.784;2022-10-15T15:32:21;4.50;;;3.03;;
55776;SDS011;54079;44.540;18.784;2022-10-15T15:34:48;4.20;;;3.08;;
55776;SDS011;54079;44.540;18.784;2022-10-15T15:37:16;4.47;;;3.13;;
55776;SDS011;54079;44.540;18.784;2022-10-15T15:39:44;6.45;;;3.40;;
55776;SDS011;54079;44.540;18.784;2022-10-15T15:42:11;4.03;;;3.22;;
55776;SDS011;54079;44.540;18.784;2022-10-15T15:44:41;3.58;;;3.17;;
55776;SDS011;54079;44.540;18.784;2022-10-15T15:47:07;4.38;;;2.88;;
55776;SDS011;54079;44.540;18.784;2022-10-15T15:49:34;4.47;;;2.60;;
55776;SDS011;54079;44.540;18.784;2022-10-15T15:52:00;3.90;;;3.03;;
55776;SDS011;54079;44.540;18.784;2022-10-15T15:54:27;4.38;;;3.33;;
55776;SDS011;54079;44.540;18.784;2022-10-15T15:56:53;5.30;;;3.08;;
55776;SDS011;54079;44.540;18.784;2022-10-15T15:59:18;4.13;;;2.75;;
55776;SDS011;54079;44.540;18.784;2022-10-15T16:01:44;3.35;;;2.97;;
55776;SDS011;54079;44.540;18.784;2022-10-15T16:04:10;3.38;;;2.83;;
55776;SDS011;54079;44.540;18.784;2022-10-15T16:06:37;5.78;;;2.85;;
55776;SDS011;54079;44.540;18.784;2022-10-15T16:09:03;5.95;;;3.15;;
55776;SDS011;54079;44.540;18.784;2022-10-15T16:11:30;4.32;;;3.20;;
55776;SDS011;54079;44.540;18.784;2022-10-15T16:13:57;6.40;;;3.00;;
55776;SDS011;54079;44.540;18.784;2022-10-15T16:16:23;4.53;;;3.38;;
55776;SDS011;54079;44.540;18.784;2022-10-15T16:18:50;5.68;;;3.30;;
55776;SDS011;54079;44.540;18.784;2022-10-15T16:21:22;6.15;;;2.90;;
55776;SDS011;54079;44.540;18.784;2022-10-15T16:23:49;4.63;;;3.33;;
55776;SDS011;54079;44.540;18.784;2022-10-15T16:26:15;5.40;;;3.08;;
55776;SDS011;54079;44.540;18.784;2022-10-15T16:28:41;5.60;;;3.20;;
55776;SDS011;54079;44.540;18.784;2022-10-15T16:31:15;5.53;;;3.50;;
55776;SDS011;54079;44.540;18.784;2022-10-15T16:33:42;3.25;;;2.95;;
55776;SDS011;54079;44.540;18.784;2022-10-15T16:36:08;6.32;;;2.90;;
55776;SDS011;54079;44.540;18.784;2022-10-15T16:38:38;5.07;;;3.17;;
55776;SDS011;54079;44.540;18.784;2022-10-15T16:41:05;3.80;;;2.90;;
55776;SDS011;54079;44.540;18.784;2022-10-15T16:43:32;6.68;;;3.33;;
55776;SDS011;54079;44.540;18.784;2022-10-15T16:45:59;4.15;;;3.50;;
55776;SDS011;54079;44.540;18.784;2022-10-15T16:48:27;4.32;;;3.00;;
55776;SDS011;54079;44.540;18.784;2022-10-15T16:50:58;4.07;;;3.55;;
55776;SDS011;54079;44.540;18.784;2022-10-15T16:53:24;3.05;;;2.75;;
55776;SDS011;54079;44.540;18.784;2022-10-15T16:55:51;3.40;;;3.05;;
55776;SDS011;54079;44.540;18.784;2022-10-15T16:58:17;3.80;;;2.75;;
55776;SDS011;54079;44.540;18.784;2022-10-15T17:00:43;5.03;;;3.22;;
55776;SDS011;54079;44.540;18.784;2022-10-15T17:03:09;4.03;;;2.90;;
55776;SDS011;54079;44.540;18.784;2022-10-15T17:05:34;4.60;;;2.88;;